createdAt,value
2018-02-06T00:00:04.409Z,43.60
2018-02-06T00:02:32.795Z,44.00
2018-02-06T00:05:00.758Z,43.90
2018-02-06T00:07:29.107Z,43.70
2018-02-06T00:09:56.761Z,43.70
2018-02-06T00:12:24.333Z,44.40
2018-02-06T00:14:52.289Z,43.70
2018-02-06T00:17:20.807Z,43.70
2018-02-06T00:19:48.369Z,43.40
2018-02-06T00:22:16.912Z,43.50
2018-02-06T00:24:44.500Z,43.70
2018-02-06T00:27:12.186Z,43.80
2018-02-06T00:29:39.731Z,43.80
2018-02-06T00:32:07.858Z,43.10
2018-02-06T00:34:35.480Z,43.30
2018-02-06T00:37:04.340Z,43.80
2018-02-06T00:39:32.779Z,43.80
2018-02-06T00:42:00.321Z,43.80
2018-02-06T00:44:28.134Z,44.00
2018-02-06T00:46:56.314Z,43.90
2018-02-06T00:49:25.171Z,44.10
2018-02-06T00:51:52.954Z,44.40
2018-02-06T00:54:21.683Z,44.50
2018-02-06T00:56:49.250Z,44.50
2018-02-06T00:59:17.581Z,44.70
2018-02-06T01:01:45.272Z,44.60
2018-02-06T01:04:17.657Z,44.80
2018-02-06T01:06:45.224Z,44.80
2018-02-06T01:09:12.842Z,45.00
2018-02-06T01:11:40.890Z,45.10
2018-02-06T01:14:08.506Z,45.30
2018-02-06T01:16:36.844Z,45.20
2018-02-06T01:19:04.446Z,45.20
2018-02-06T01:21:33.021Z,45.30
2018-02-06T01:24:00.638Z,45.50
2018-02-06T01:26:28.241Z,45.70
2018-02-06T01:28:55.770Z,45.80
2018-02-06T01:31:23.379Z,45.70
2018-02-06T01:33:52.607Z,45.90
2018-02-06T01:36:20.501Z,45.80
2018-02-06T01:38:48.787Z,45.60
2018-02-06T01:41:16.327Z,45.60
2018-02-06T01:43:43.924Z,45.70
2018-02-06T01:46:11.832Z,45.70
2018-02-06T01:48:39.974Z,45.80
2018-02-06T01:51:08.373Z,46.10
2018-02-06T01:53:36.726Z,45.90
2018-02-06T01:56:04.296Z,45.90
2018-02-06T01:58:32.644Z,46.40
2018-02-06T02:01:00.200Z,46.30
2018-02-06T02:03:27.762Z,46.20
2018-02-06T02:05:55.326Z,46.30
2018-02-06T02:08:22.862Z,46.50
2018-02-06T02:10:50.436Z,46.70
2018-02-06T02:13:18.031Z,46.70
2018-02-06T02:15:46.470Z,46.90
2018-02-06T02:18:14.107Z,46.80
2018-02-06T02:20:41.674Z,46.70
2018-02-06T02:23:09.289Z,46.70
2018-02-06T02:25:36.832Z,47.00
2018-02-06T02:28:04.396Z,46.90
2018-02-06T02:30:31.971Z,47.10
2018-02-06T02:32:59.558Z,47.20
2018-02-06T02:35:28.620Z,47.30
2018-02-06T02:37:57.228Z,47.30
2018-02-06T02:40:25.808Z,47.30
2018-02-06T04:39:16.988Z,43.80
2018-02-06T04:41:44.547Z,43.80
2018-02-06T04:44:12.982Z,43.80
2018-02-06T04:46:40.557Z,43.80
2018-02-06T04:49:08.154Z,43.90
2018-02-06T04:51:37.847Z,44.60
2018-02-06T04:54:05.391Z,44.00
2018-02-06T04:56:33.947Z,44.30
2018-02-06T04:59:01.531Z,44.00
2018-02-06T05:01:29.656Z,44.10
2018-02-06T05:03:57.198Z,44.00
2018-02-06T05:06:24.752Z,44.50
2018-02-06T05:08:53.046Z,44.20
2018-02-06T05:11:20.607Z,44.30
2018-02-06T05:13:48.957Z,43.90
2018-02-06T05:16:16.684Z,43.80
2018-02-06T05:18:44.333Z,43.90
2018-02-06T05:21:12.208Z,43.90
2018-02-06T05:23:40.796Z,43.60
2018-02-06T05:26:08.334Z,43.80
2018-02-06T05:28:35.927Z,43.80
2018-02-06T05:31:03.603Z,44.00
2018-02-06T05:33:31.158Z,44.20
2018-02-06T05:35:59.107Z,44.10
2018-02-06T05:38:26.948Z,44.00
2018-02-06T05:40:55.148Z,43.80
2018-02-06T05:43:23.000Z,44.20
2018-02-06T05:45:50.562Z,44.00
2018-02-06T05:48:18.130Z,44.00
2018-02-06T05:50:45.662Z,43.60
2018-02-06T05:53:13.286Z,43.50
2018-02-06T05:55:40.864Z,43.40
2018-02-06T05:58:08.691Z,43.20
2018-02-06T06:00:37.415Z,43.30
2018-02-06T06:03:04.978Z,43.30
2018-02-06T06:05:32.589Z,43.50
2018-02-06T06:08:00.218Z,43.40
2018-02-06T06:10:27.795Z,43.20
2018-02-06T06:12:55.337Z,43.10
2018-02-06T06:15:22.952Z,43.30
2018-02-06T06:17:50.522Z,43.50
2018-02-06T06:20:18.887Z,43.20
2018-02-06T06:22:46.495Z,43.40
2018-02-06T06:25:14.714Z,43.70
2018-02-06T06:27:42.258Z,43.60
2018-02-06T06:30:09.866Z,43.40
2018-02-06T06:32:37.381Z,43.20
2018-02-06T06:35:05.053Z,42.90
2018-02-06T06:37:32.758Z,42.80
2018-02-06T06:40:00.414Z,42.80
2018-02-06T06:42:27.942Z,42.90
2018-02-06T06:44:55.547Z,43.10
2018-02-06T06:47:23.883Z,42.70
2018-02-06T06:49:51.453Z,42.60
2018-02-06T06:52:19.034Z,42.60
2018-02-06T06:54:47.632Z,42.60
2018-02-06T06:57:15.231Z,42.70
2018-02-06T06:59:42.837Z,42.80
2018-02-06T07:02:15.879Z,43.10
2018-02-06T07:04:43.483Z,43.10
2018-02-06T07:07:11.051Z,43.40
2018-02-06T07:09:38.612Z,43.60
2018-02-06T07:12:07.230Z,43.40
2018-02-06T07:14:34.772Z,43.40
2018-02-06T07:17:03.296Z,42.70
2018-02-06T07:19:30.844Z,42.70
2018-02-06T07:21:58.396Z,42.50
2018-02-06T07:24:25.969Z,42.50
2018-02-06T07:26:53.709Z,42.60
2018-02-06T07:29:21.242Z,42.60
2018-02-06T07:31:49.346Z,42.50
2018-02-06T07:34:16.916Z,42.10
2018-02-06T07:36:44.454Z,42.10
2018-02-06T07:39:12.091Z,42.00
2018-02-06T07:41:39.643Z,42.10
2018-02-06T07:44:07.212Z,42.00
2018-02-06T07:46:34.946Z,41.90
2018-02-06T07:49:02.536Z,41.70
2018-02-06T07:51:30.774Z,42.00
2018-02-06T07:53:58.372Z,41.80
2018-02-06T07:56:26.679Z,41.50
2018-02-06T07:58:54.265Z,41.50
2018-02-06T08:01:21.874Z,42.00
2018-02-06T08:03:49.509Z,42.00
2018-02-06T08:06:17.064Z,42.30
2018-02-06T08:08:44.754Z,42.50
2018-02-06T08:11:12.364Z,42.80
2018-02-06T08:13:39.906Z,43.20
2018-02-06T08:16:07.464Z,43.50
2018-02-06T08:18:35.043Z,43.30
2018-02-06T08:21:02.625Z,42.50
2018-02-06T08:23:30.858Z,42.50
2018-02-06T08:25:59.169Z,43.00
2018-02-06T08:28:29.191Z,43.00
2018-02-06T08:30:56.757Z,42.60
2018-02-06T08:33:24.499Z,42.30
2018-02-06T08:35:52.037Z,42.40
2018-02-06T08:38:20.114Z,42.50
2018-02-06T08:40:47.717Z,42.50
2018-02-06T08:43:15.372Z,42.60
2018-02-06T08:45:42.960Z,42.70
2018-02-06T08:48:11.435Z,42.50
2018-02-06T08:50:39.037Z,42.50
2018-02-06T08:53:06.919Z,42.70
2018-02-06T08:55:34.482Z,42.50
2018-02-06T08:58:02.049Z,42.50
2018-02-06T09:00:29.713Z,42.20
2018-02-06T09:02:57.443Z,42.50
2018-02-06T09:05:25.005Z,42.20
2018-02-06T09:07:53.432Z,42.60
2018-02-06T09:10:21.813Z,42.70
2018-02-06T09:12:49.618Z,42.70
2018-02-06T09:15:17.945Z,43.10
2018-02-06T09:17:47.276Z,43.10
2018-02-06T09:20:14.887Z,43.50
2018-02-06T09:22:42.414Z,43.50
2018-02-06T09:25:10.801Z,43.90
2018-02-06T09:27:39.111Z,43.80
2018-02-06T09:30:07.595Z,43.80
2018-02-06T09:32:35.177Z,44.50
2018-02-06T09:35:03.022Z,43.90
2018-02-06T09:37:30.584Z,42.90
2018-02-06T09:39:58.188Z,42.90
2018-02-06T09:42:25.740Z,43.00
2018-02-06T09:44:54.410Z,43.20
2018-02-06T09:47:21.986Z,43.50
2018-02-06T09:49:49.599Z,43.70
2018-02-06T09:52:17.989Z,43.10
2018-02-06T09:54:45.633Z,43.00
2018-02-06T09:57:13.247Z,43.00
2018-02-06T09:59:42.286Z,43.10
2018-02-06T10:02:10.611Z,42.50
2018-02-06T10:04:39.194Z,42.50
2018-02-06T10:07:06.791Z,42.50
2018-02-06T10:09:34.383Z,42.60
2018-02-06T10:12:01.991Z,42.30
2018-02-06T10:14:29.551Z,42.10
2018-02-06T10:16:57.128Z,42.10
2018-02-06T10:19:25.539Z,42.10
2018-02-06T10:21:54.518Z,42.00
2018-02-06T10:24:22.639Z,41.80
2018-02-06T10:26:51.058Z,41.70
2018-02-06T10:29:18.655Z,41.70
2018-02-06T10:31:48.256Z,41.90
2018-02-06T10:34:18.144Z,41.80
2018-02-06T10:36:45.744Z,41.60
2018-02-06T10:39:13.334Z,41.80
2018-02-06T10:41:40.973Z,41.70
2018-02-06T10:44:09.278Z,41.70
2018-02-06T10:46:37.755Z,41.90
2018-02-06T10:49:05.390Z,41.90
2018-02-06T10:51:33.037Z,41.80
2018-02-06T10:54:00.584Z,41.60
2018-02-06T10:56:28.239Z,41.60
2018-02-06T10:58:56.779Z,41.80
2018-02-06T11:01:24.452Z,41.70
2018-02-06T11:03:52.710Z,41.70
2018-02-06T11:06:20.337Z,41.80
2018-02-06T11:08:47.905Z,42.00
2018-02-06T11:11:15.871Z,42.00
2018-02-06T11:13:43.449Z,43.30
2018-02-06T11:16:11.834Z,42.30
2018-02-06T11:18:40.156Z,42.70
2018-02-06T11:21:09.611Z,42.90
2018-02-06T11:23:37.196Z,42.90
2018-02-06T11:26:04.772Z,43.00
2018-02-06T11:28:32.372Z,43.30
2018-02-06T11:30:59.968Z,43.30
2018-02-06T11:33:27.611Z,44.10
2018-02-06T11:35:55.144Z,43.80
2018-02-06T11:38:22.849Z,44.00
2018-02-06T11:40:51.913Z,44.10
2018-02-06T11:43:20.401Z,44.30
2018-02-06T11:45:48.041Z,44.50
2018-02-06T11:48:16.397Z,44.50
2018-02-06T11:50:43.962Z,44.50
2018-02-06T11:53:12.445Z,45.00
2018-02-06T11:55:41.593Z,45.00
2018-02-06T11:58:09.719Z,45.20
2018-02-06T12:00:37.310Z,45.30
2018-02-06T12:03:05.416Z,45.40
2018-02-06T12:05:33.751Z,45.60
2018-02-06T12:08:03.042Z,45.60
2018-02-06T12:10:32.212Z,45.60
2018-02-06T12:13:00.591Z,45.80
2018-02-06T12:15:28.199Z,46.00
2018-02-06T12:17:56.170Z,46.00
2018-02-06T12:20:23.851Z,46.10
2018-02-06T12:22:51.383Z,45.90
2018-02-06T12:25:19.895Z,46.00
2018-02-06T12:27:47.459Z,46.00
2018-02-06T12:30:15.782Z,46.40
2018-02-06T12:32:43.437Z,46.40
2018-02-06T12:35:11.849Z,46.40
2018-02-06T12:37:39.386Z,46.50
2018-02-06T12:40:07.959Z,46.50
2018-02-06T12:42:36.379Z,46.60
2018-02-06T12:45:04.798Z,46.60
2018-02-06T12:47:33.006Z,46.90
2018-02-06T12:50:01.077Z,47.00
2018-02-06T12:52:29.408Z,47.10
2018-02-06T12:54:56.942Z,47.00
2018-02-06T12:57:24.551Z,47.00
2018-02-06T12:59:52.936Z,46.90
2018-02-06T13:02:21.041Z,46.90
2018-02-06T13:04:48.622Z,46.90
2018-02-06T13:07:17.783Z,47.00
2018-02-06T13:09:47.353Z,47.10
2018-02-06T13:12:14.996Z,47.10
2018-02-06T13:14:43.217Z,47.10
2018-02-06T13:17:11.622Z,47.40
2018-02-06T13:19:39.151Z,47.40
2018-02-06T13:22:09.418Z,47.40
2018-02-06T13:24:37.744Z,47.70
2018-02-06T13:27:05.286Z,47.80
2018-02-06T13:29:32.912Z,47.90
2018-02-06T13:32:00.482Z,47.90
2018-02-06T13:34:28.049Z,48.10
2018-02-06T13:36:56.516Z,48.40
2018-02-06T13:39:25.613Z,48.20
2018-02-06T13:41:53.138Z,48.20
2018-02-06T13:44:20.670Z,48.20
2018-02-06T13:46:48.245Z,48.20
2018-02-06T13:49:15.822Z,48.30
2018-02-06T13:51:44.139Z,48.40
2018-02-06T13:54:11.765Z,48.40
2018-02-06T13:56:39.328Z,48.70
2018-02-06T13:59:06.888Z,48.70
2018-02-06T14:01:34.429Z,49.50
2018-02-06T14:04:04.040Z,49.30
2018-02-06T14:06:31.598Z,49.30
2018-02-06T14:08:59.168Z,49.30
2018-02-06T14:11:27.272Z,49.50
2018-02-06T14:13:54.836Z,49.30
2018-02-06T14:16:23.253Z,49.20
2018-02-06T14:18:50.852Z,49.20
2018-02-06T14:21:18.955Z,49.20
2018-02-06T14:23:46.478Z,49.20
2018-02-06T14:26:14.812Z,49.70
2018-02-06T14:28:43.327Z,49.70
2018-02-06T14:31:12.403Z,49.80
2018-02-06T14:33:40.278Z,49.80
2018-02-06T14:36:07.863Z,49.90
2018-02-06T14:38:35.441Z,49.90
2018-02-06T14:41:03.162Z,49.90
2018-02-06T14:43:30.678Z,49.90
2018-02-06T14:45:58.206Z,49.90
2018-02-06T14:48:26.520Z,50.00
2018-02-06T14:50:54.064Z,50.10
2018-02-06T14:53:21.585Z,50.20
2018-02-06T14:55:49.902Z,50.40
2018-02-06T14:58:17.453Z,50.40
2018-02-06T15:00:45.224Z,50.40
2018-02-06T15:03:12.819Z,50.70
2018-02-06T15:05:40.956Z,50.70
2018-02-06T15:08:09.506Z,51.00
2018-02-06T15:10:37.048Z,51.20
2018-02-06T15:13:04.650Z,51.20
2018-02-06T15:15:32.242Z,51.30
2018-02-06T15:17:59.764Z,51.40
2018-02-06T15:20:27.333Z,51.40
2018-02-06T15:22:54.933Z,51.50
2018-02-06T15:25:23.248Z,51.50
2018-02-06T15:27:51.282Z,51.40
2018-02-06T15:30:18.856Z,51.50
2018-02-06T15:32:46.534Z,51.50
2018-02-06T15:35:14.088Z,51.70
2018-02-06T15:37:41.782Z,51.50
2018-02-06T15:40:09.936Z,51.70
2018-02-06T15:42:38.608Z,51.70
2018-02-06T15:45:08.549Z,51.70
2018-02-06T15:47:36.956Z,51.80
2018-02-06T15:50:04.680Z,51.80
2018-02-06T15:52:32.297Z,51.90
2018-02-06T15:54:59.910Z,52.20
2018-02-06T15:57:28.788Z,52.20
2018-02-06T15:59:56.437Z,52.10
2018-02-06T16:02:24.097Z,52.20
2018-02-06T16:04:51.720Z,52.20
2018-02-06T16:07:19.364Z,52.40
2018-02-06T16:09:46.977Z,52.40
2018-02-06T16:12:14.579Z,52.70
2018-02-06T16:14:42.193Z,52.90
2018-02-06T16:17:09.741Z,53.10
2018-02-06T16:19:37.361Z,53.20
2018-02-06T16:22:04.979Z,53.20
2018-02-06T16:24:32.585Z,53.30
2018-02-06T16:27:00.233Z,53.40
2018-02-06T16:29:27.813Z,53.60
2018-02-06T16:31:55.435Z,53.70
2018-02-06T16:34:24.420Z,53.80
2018-02-06T16:36:52.167Z,53.90
2018-02-06T16:39:19.767Z,53.90
2018-02-06T16:41:47.333Z,53.90
2018-02-06T16:44:14.946Z,54.00
2018-02-06T16:46:43.797Z,54.20
2018-02-06T16:49:11.875Z,54.20
2018-02-06T16:51:40.142Z,54.40
2018-02-06T16:54:07.824Z,54.70
2018-02-06T16:56:35.493Z,54.80
2018-02-06T16:59:03.499Z,54.90
2018-02-06T17:01:32.204Z,55.10
2018-02-06T17:04:00.525Z,55.20
2018-02-06T17:06:28.141Z,55.30
2018-02-06T17:08:56.635Z,56.30
2018-02-06T17:11:24.997Z,55.50
2018-02-06T17:13:52.547Z,55.60
2018-02-06T17:16:20.988Z,55.60
2018-02-06T17:18:48.650Z,55.60
2018-02-06T17:21:16.189Z,55.60
2018-02-06T17:23:43.793Z,55.50
2018-02-06T17:26:11.398Z,55.70
2018-02-06T17:28:40.245Z,55.80
2018-02-06T17:31:08.135Z,56.00
2018-02-06T17:33:36.989Z,56.10
2018-02-06T17:36:04.589Z,56.10
2018-02-06T17:38:34.522Z,56.20
2018-02-06T17:41:02.900Z,56.20
2018-02-06T17:43:30.471Z,56.30
2018-02-06T17:45:59.400Z,56.40
2018-02-06T17:48:27.103Z,56.30
2018-02-06T17:50:56.342Z,56.60
2018-02-06T17:53:24.513Z,56.60
2018-02-06T17:55:52.132Z,56.50
2018-02-06T17:58:20.314Z,56.80
2018-02-06T18:00:47.913Z,56.70
2018-02-06T18:03:16.498Z,56.30
2018-02-06T18:05:44.646Z,56.10
2018-02-06T18:08:13.254Z,55.70
2018-02-06T18:10:41.655Z,55.70
2018-02-06T18:13:09.217Z,55.50
2018-02-06T18:15:37.395Z,55.60
2018-02-06T18:18:04.936Z,55.70
2018-02-06T18:20:32.902Z,55.90
2018-02-06T18:23:00.449Z,55.90
2018-02-06T18:25:28.003Z,55.90
2018-02-06T18:27:55.891Z,55.90
2018-02-06T18:30:23.438Z,55.80
2018-02-06T18:32:50.976Z,55.90
2018-02-06T18:35:18.578Z,55.90
2018-02-06T18:37:46.900Z,56.00
2018-02-06T18:40:15.207Z,56.10
2018-02-06T18:42:42.786Z,56.10
2018-02-06T18:45:10.302Z,56.10
2018-02-06T18:47:38.648Z,56.30
2018-02-06T18:50:06.233Z,56.30
2018-02-06T18:52:33.800Z,56.30
2018-02-06T18:55:01.920Z,56.40
2018-02-06T18:57:29.455Z,56.30
2018-02-06T18:59:57.035Z,56.40
2018-02-06T19:02:24.581Z,56.40
2018-02-06T19:04:52.126Z,56.50
2018-02-06T19:07:19.660Z,56.60
2018-02-06T19:09:47.229Z,56.60
2018-02-06T19:12:14.789Z,56.50
2018-02-06T19:14:43.767Z,56.40
2018-02-06T19:17:11.330Z,56.30
2018-02-06T19:19:38.896Z,56.30
2018-02-06T19:22:06.583Z,56.20
2018-02-06T19:24:34.118Z,55.90
2018-02-06T19:27:01.647Z,55.80
2018-02-06T19:29:29.254Z,55.70
2018-02-06T19:31:57.626Z,56.30
2018-02-06T19:34:25.156Z,56.30
2018-02-06T19:36:55.362Z,56.30
2018-02-06T19:39:23.929Z,56.50
2018-02-06T19:41:54.140Z,56.50
2018-02-06T19:44:22.537Z,56.50
2018-02-06T19:46:53.143Z,56.60
2018-02-06T19:49:20.821Z,56.60
2018-02-06T19:51:48.379Z,56.60
2018-02-06T19:54:17.278Z,56.50
2018-02-06T19:56:47.336Z,56.80
2018-02-06T19:59:15.991Z,56.70
2018-02-06T20:01:48.073Z,56.60
2018-02-06T20:04:15.698Z,56.60
2018-02-06T20:06:44.822Z,56.50
2018-02-06T20:09:13.156Z,56.30
2018-02-06T20:11:42.894Z,56.30
2018-02-06T20:14:12.379Z,56.80
2018-02-06T20:16:42.752Z,56.10
2018-02-06T20:19:12.679Z,56.10
2018-02-06T20:21:41.921Z,56.10
2018-02-06T20:24:12.385Z,56.10
2018-02-06T20:26:42.341Z,56.10
2018-02-06T20:29:12.541Z,56.30
2018-02-06T20:31:41.350Z,56.30
2018-02-06T20:34:11.939Z,56.20
2018-02-06T20:36:42.296Z,56.20
2018-02-06T20:39:09.973Z,56.20
2018-02-06T20:41:38.299Z,56.20
2018-02-06T20:44:06.495Z,56.10
2018-02-06T20:46:35.535Z,55.90
2018-02-06T20:49:05.789Z,55.90
2018-02-06T20:51:33.504Z,55.80
2018-02-06T20:54:01.089Z,55.90
2018-02-06T20:56:28.657Z,55.80
2018-02-06T20:58:56.208Z,55.70
2018-02-06T21:01:25.002Z,55.80
2018-02-06T21:03:52.589Z,55.80
2018-02-06T21:06:20.184Z,55.80
2018-02-06T21:08:47.858Z,55.70
2018-02-06T21:11:15.384Z,55.70
2018-02-06T21:13:42.960Z,56.40
2018-02-06T21:16:10.548Z,55.80
2018-02-06T21:18:38.897Z,56.90
2018-02-06T21:21:07.268Z,56.30
2018-02-06T21:23:34.857Z,56.30
2018-02-06T21:26:02.413Z,56.50
2018-02-06T21:28:29.985Z,56.50
2018-02-06T21:30:57.600Z,56.60
2018-02-06T21:33:25.195Z,56.90
2018-02-06T21:35:54.470Z,57.00
2018-02-06T21:38:22.015Z,56.90
2018-02-06T21:40:49.689Z,57.00
2018-02-06T21:43:17.238Z,57.00
2018-02-06T21:45:44.799Z,57.10
2018-02-06T21:48:12.367Z,57.50
2018-02-06T21:50:40.836Z,57.60
2018-02-06T21:53:09.301Z,57.50
2018-02-06T21:55:37.171Z,57.50
2018-02-06T21:58:04.709Z,57.60
2018-02-06T22:00:32.303Z,57.60
2018-02-06T22:02:59.892Z,57.60
2018-02-06T22:05:27.492Z,57.70
2018-02-06T22:07:55.042Z,57.70
2018-02-06T22:10:22.688Z,57.90
2018-02-06T22:12:51.081Z,57.80
2018-02-06T22:15:18.634Z,57.80
2018-02-06T22:17:46.207Z,58.00
2018-02-06T22:20:14.308Z,58.30
2018-02-06T22:22:41.841Z,58.20
2018-02-06T22:25:09.422Z,58.20
2018-02-06T22:27:36.939Z,58.20
2018-02-06T22:30:06.500Z,58.70
2018-02-06T22:32:34.078Z,58.70
2018-02-06T22:35:01.653Z,58.80
2018-02-06T22:37:29.232Z,58.80
2018-02-06T22:39:57.572Z,58.70
2018-02-06T22:42:25.693Z,58.70
2018-02-06T22:44:53.248Z,58.90
2018-02-06T22:47:20.819Z,58.90
2018-02-06T22:49:48.404Z,58.70
2018-02-06T22:52:15.972Z,58.80
2018-02-06T22:54:44.417Z,58.80
2018-02-06T22:57:11.964Z,58.90
2018-02-06T22:59:39.517Z,59.50
2018-02-06T23:02:10.537Z,59.30
2018-02-06T23:04:38.075Z,59.20
2018-02-06T23:07:05.650Z,59.40
2018-02-06T23:09:33.197Z,59.50
2018-02-06T23:12:00.755Z,59.60
2018-02-06T23:14:28.351Z,59.70
2018-02-06T23:16:57.002Z,59.70
2018-02-06T23:19:24.582Z,59.70
2018-02-06T23:21:52.153Z,59.60
2018-02-06T23:24:20.554Z,59.60
2018-02-06T23:26:48.109Z,59.60
2018-02-06T23:29:16.242Z,59.70
2018-02-06T23:31:44.916Z,59.60
2018-02-06T23:34:12.442Z,59.60
2018-02-06T23:36:40.002Z,59.60
2018-02-06T23:39:07.938Z,59.60
2018-02-06T23:41:35.513Z,59.70
2018-02-06T23:44:03.820Z,59.70
2018-02-06T23:46:31.348Z,59.70
2018-02-06T23:49:00.347Z,59.70
2018-02-06T23:51:27.948Z,59.70
2018-02-06T23:53:55.488Z,59.50
2018-02-06T23:56:23.112Z,59.30
2018-02-06T23:58:51.333Z,59.30
